createdAt,value
2022-09-02T00:01:00.561Z,0.98
2022-09-02T00:03:34.485Z,1.33
2022-09-02T00:06:02.521Z,1.17
2022-09-02T00:08:31.943Z,1.40
2022-09-02T00:11:06.550Z,1.67
2022-09-02T00:13:35.209Z,1.40
2022-09-02T00:16:02.633Z,1.33
2022-09-02T00:18:29.352Z,1.17
2022-09-02T00:20:55.866Z,1.30
2022-09-02T00:23:22.686Z,0.95
2022-09-02T00:25:52.147Z,1.13
2022-09-02T00:28:19.129Z,1.20
2022-09-02T00:30:45.869Z,1.17
2022-09-02T00:33:13.005Z,1.30
2022-09-02T00:35:39.561Z,1.73
2022-09-02T00:38:06.487Z,0.93
2022-09-02T00:40:34.496Z,1.10
2022-09-02T00:43:01.702Z,0.88
2022-09-02T00:45:28.964Z,1.55
2022-09-02T00:47:55.572Z,0.98
2022-09-02T00:50:27.049Z,1.38
2022-09-02T00:52:57.796Z,1.67
2022-09-02T00:55:32.773Z,1.00
2022-09-02T00:58:04.085Z,1.42
2022-09-02T01:00:42.537Z,1.38
2022-09-02T01:03:12.824Z,0.82
2022-09-02T01:05:46.670Z,0.90
2022-09-02T01:08:15.917Z,0.93
2022-09-02T01:10:43.296Z,1.55
2022-09-02T01:13:17.031Z,1.75
2022-09-02T01:15:47.190Z,1.08
2022-09-02T01:18:18.114Z,1.30
2022-09-02T01:20:44.715Z,1.33
2022-09-02T01:23:17.096Z,0.95
2022-09-02T01:25:44.215Z,1.40
2022-09-02T01:28:14.055Z,1.13
2022-09-02T01:30:44.308Z,1.10
2022-09-02T01:33:11.983Z,0.88
2022-09-02T01:35:38.838Z,0.82
2022-09-02T01:38:05.882Z,0.98
2022-09-02T01:40:32.959Z,0.93
2022-09-02T01:43:09.506Z,1.27
2022-09-02T01:45:38.083Z,0.95
2022-09-02T01:48:05.817Z,1.13
2022-09-02T01:50:32.810Z,1.23
2022-09-02T01:53:03.971Z,1.25
2022-09-02T01:55:33.242Z,1.02
2022-09-02T01:57:59.975Z,1.45
2022-09-02T02:00:27.100Z,1.02
2022-09-02T02:02:53.729Z,1.58
2022-09-02T02:05:20.846Z,0.98
2022-09-02T02:07:47.686Z,0.80
2022-09-02T02:10:16.119Z,0.80
2022-09-02T02:12:42.928Z,0.60
2022-09-02T02:15:14.484Z,1.10
2022-09-02T02:17:41.134Z,1.20
2022-09-02T02:20:09.846Z,1.23
2022-09-02T02:22:36.758Z,0.93
2022-09-02T02:25:05.490Z,1.13
2022-09-02T02:27:32.199Z,1.10
2022-09-02T02:29:59.780Z,0.73
2022-09-02T02:32:26.711Z,0.80
2022-09-02T02:34:54.417Z,1.10
2022-09-02T02:37:25.268Z,1.25
2022-09-02T02:39:52.365Z,1.10
2022-09-02T02:42:18.882Z,0.90
2022-09-02T02:44:45.819Z,1.75
2022-09-02T02:47:12.547Z,0.95
2022-09-02T02:49:41.403Z,1.60
2022-09-02T02:52:09.268Z,1.02
2022-09-02T02:54:35.995Z,0.75
2022-09-02T02:57:04.307Z,1.17
2022-09-02T02:59:31.026Z,1.23
2022-09-02T03:01:57.814Z,0.82
2022-09-02T03:04:24.570Z,1.05
2022-09-02T03:06:51.205Z,1.50
2022-09-02T03:09:20.367Z,1.30
2022-09-02T03:11:48.214Z,1.00
2022-09-02T03:14:16.991Z,1.00
2022-09-02T03:16:43.581Z,1.00
2022-09-02T03:19:14.031Z,0.65
2022-09-02T03:21:41.828Z,1.23
2022-09-02T03:24:10.226Z,0.95
2022-09-02T03:26:36.898Z,1.38
2022-09-02T03:29:04.010Z,1.90
2022-09-02T03:31:30.598Z,0.88
2022-09-02T03:33:57.188Z,0.80
2022-09-02T03:36:36.410Z,0.98
2022-09-02T03:39:04.217Z,1.45
2022-09-02T03:41:30.855Z,0.80
2022-09-02T03:43:57.717Z,1.23
2022-09-02T03:46:25.110Z,1.23
2022-09-02T03:48:52.089Z,0.98
2022-09-02T03:51:23.064Z,1.10
2022-09-02T03:53:49.627Z,0.73
2022-09-02T03:56:17.460Z,0.80
2022-09-02T03:58:45.535Z,1.30
2022-09-02T04:01:21.020Z,1.27
2022-09-02T04:03:48.135Z,1.27
2022-09-02T04:06:17.354Z,1.75
2022-09-02T04:08:45.061Z,0.60
2022-09-02T04:11:16.388Z,1.20
2022-09-02T04:13:43.444Z,0.70
2022-09-02T04:16:14.069Z,1.73
2022-09-02T04:18:41.338Z,1.33
2022-09-02T04:21:08.559Z,1.40
2022-09-02T04:23:35.724Z,1.42
2022-09-02T04:26:11.775Z,1.10
2022-09-02T04:28:38.303Z,0.82
2022-09-02T04:31:07.615Z,0.88
2022-09-02T04:33:35.875Z,0.80
2022-09-02T04:36:08.136Z,0.80
2022-09-02T04:38:35.547Z,0.95
2022-09-02T04:41:11.627Z,0.80
2022-09-02T04:43:38.605Z,1.02
2022-09-02T04:46:07.306Z,1.85
2022-09-02T04:48:36.781Z,0.70
2022-09-02T04:51:06.218Z,1.10
2022-09-02T04:53:33.532Z,0.82
2022-09-02T04:56:08.448Z,1.02
2022-09-02T04:58:36.135Z,1.15
2022-09-02T05:01:14.370Z,0.95
2022-09-02T05:03:41.679Z,1.10
2022-09-02T05:06:10.654Z,0.70
2022-09-02T05:08:37.415Z,1.00
2022-09-02T05:11:08.599Z,1.20
2022-09-02T05:13:35.362Z,1.25
2022-09-02T05:16:02.794Z,1.50
2022-09-02T05:18:30.279Z,1.45
2022-09-02T05:20:56.815Z,0.95
2022-09-02T05:23:23.446Z,1.35
2022-09-02T05:25:50.076Z,1.63
2022-09-02T05:28:17.250Z,2.72
2022-09-02T05:30:43.864Z,2.97
2022-09-02T05:33:10.777Z,9.77
2022-09-02T05:35:45.564Z,5.53
2022-09-02T05:40:41.518Z,2.28
2022-09-02T05:43:08.102Z,3.03
2022-09-02T05:45:37.226Z,6.65
2022-09-02T05:48:23.774Z,5.00
2022-09-02T05:50:50.363Z,1.92
2022-09-02T05:53:26.900Z,2.38
2022-09-02T05:55:53.611Z,2.33
2022-09-02T05:58:20.163Z,5.82
2022-09-02T06:00:46.679Z,5.90
2022-09-02T06:03:13.707Z,8.55
2022-09-02T06:05:42.513Z,4.80
2022-09-02T06:08:09.098Z,2.70
2022-09-02T06:10:41.296Z,1.98
2022-09-02T06:13:08.157Z,3.22
2022-09-02T06:15:34.724Z,2.28
2022-09-02T06:18:01.351Z,3.95
2022-09-02T06:20:29.191Z,2.85
2022-09-02T06:22:55.724Z,7.13
2022-09-02T06:25:22.236Z,3.67
2022-09-02T06:27:48.748Z,1.98
2022-09-02T06:30:15.274Z,3.35
2022-09-02T06:32:41.787Z,4.38
2022-09-02T06:35:09.696Z,3.63
2022-09-02T06:37:36.263Z,2.58
2022-09-02T06:40:03.648Z,3.40
2022-09-02T06:42:30.182Z,1.67
2022-09-02T06:44:56.692Z,1.63
2022-09-02T06:47:23.194Z,2.00
2022-09-02T06:49:49.823Z,3.05
2022-09-02T06:52:16.339Z,2.00
2022-09-02T06:54:42.840Z,1.73
2022-09-02T06:57:09.347Z,2.42
2022-09-02T06:59:36.520Z,3.80
2022-09-02T07:02:04.034Z,2.40
2022-09-02T07:04:51.245Z,2.30
2022-09-02T07:07:19.819Z,2.28
2022-09-02T07:09:46.622Z,2.17
2022-09-02T07:12:14.727Z,2.75
2022-09-02T07:14:43.804Z,2.92
2022-09-02T07:17:12.780Z,3.08
2022-09-02T07:19:39.402Z,2.70
2022-09-02T07:22:07.170Z,2.60
2022-09-02T07:24:33.879Z,2.65
2022-09-02T07:27:00.486Z,2.63
2022-09-02T07:29:27.121Z,2.28
2022-09-02T07:31:53.915Z,2.42
2022-09-02T07:34:20.987Z,2.20
2022-09-02T07:36:48.616Z,1.48
2022-09-02T07:39:16.583Z,3.10
2022-09-02T07:41:45.243Z,1.73
2022-09-02T07:44:12.619Z,1.95
2022-09-02T07:46:40.083Z,3.38
2022-09-02T07:49:10.086Z,2.05
2022-09-02T07:51:40.051Z,3.55
2022-09-02T07:54:08.472Z,1.65
2022-09-02T07:56:35.825Z,1.40
2022-09-02T08:01:29.923Z,1.95
2022-09-02T08:03:58.612Z,1.60
2022-09-02T08:06:34.849Z,1.80
2022-09-02T08:09:06.945Z,1.88
2022-09-02T08:11:39.011Z,2.88
2022-09-02T08:14:11.971Z,1.70
2022-09-02T08:16:39.544Z,2.20
2022-09-02T08:19:07.834Z,1.75
2022-09-02T08:21:34.567Z,2.05
2022-09-02T08:24:01.099Z,1.73
2022-09-02T08:26:28.509Z,2.20
2022-09-02T08:28:55.910Z,3.10
2022-09-02T08:31:22.864Z,1.52
2022-09-02T08:33:49.488Z,2.13
2022-09-02T08:36:16.146Z,1.63
2022-09-02T08:38:43.178Z,1.38
2022-09-02T08:41:25.381Z,1.45
2022-09-02T08:43:58.740Z,1.92
2022-09-02T08:49:03.058Z,1.58
2022-09-02T08:51:37.596Z,1.48
2022-09-02T08:54:24.080Z,1.23
2022-09-02T08:56:51.876Z,1.65
2022-09-02T08:59:22.559Z,1.15
2022-09-02T09:02:01.025Z,1.27
2022-09-02T09:05:07.462Z,1.27
2022-09-02T09:08:04.902Z,1.35
2022-09-02T09:10:48.186Z,1.15
2022-09-02T09:13:51.860Z,1.67
2022-09-02T09:19:10.760Z,2.05
2022-09-02T09:21:40.795Z,1.13
2022-09-02T09:24:39.990Z,1.40
2022-09-02T09:27:12.828Z,2.17
2022-09-02T09:29:39.996Z,1.42
2022-09-02T09:32:33.183Z,1.30
2022-09-02T09:35:02.689Z,1.00
2022-09-02T09:37:36.715Z,1.40
2022-09-02T09:40:18.299Z,1.20
2022-09-02T09:42:49.658Z,1.35
2022-09-02T09:45:26.461Z,1.45
2022-09-02T09:48:11.762Z,1.63
2022-09-02T09:50:38.363Z,1.52
2022-09-02T09:53:18.036Z,1.50
2022-09-02T09:56:01.469Z,1.55
2022-09-02T09:58:40.106Z,1.05
2022-09-02T10:01:34.579Z,1.30
2022-09-02T10:04:32.211Z,1.80
2022-09-02T10:06:55.154Z,3.38
2022-09-02T10:09:21.631Z,1.05
2022-09-02T10:12:01.891Z,0.70
2022-09-02T10:14:36.530Z,1.45
2022-09-02T10:17:27.487Z,1.60
2022-09-02T10:20:04.733Z,1.65
2022-09-02T10:22:59.932Z,1.75
2022-09-02T10:26:01.866Z,1.30
2022-09-02T10:29:00.827Z,0.68
2022-09-02T10:31:42.544Z,1.85
2022-09-02T10:34:24.572Z,1.45
2022-09-02T10:37:21.319Z,1.00
2022-09-02T10:39:56.753Z,1.10
2022-09-02T10:42:31.430Z,1.00
2022-09-02T10:45:25.991Z,1.10
2022-09-02T10:48:08.521Z,1.33
2022-09-02T10:50:46.851Z,0.70
2022-09-02T10:53:30.913Z,2.25
2022-09-02T10:56:05.694Z,0.80
2022-09-02T10:59:03.338Z,1.02
2022-09-02T11:04:16.414Z,0.98
2022-09-02T11:07:02.518Z,0.70
2022-09-02T11:09:37.438Z,1.02
2022-09-02T11:12:27.852Z,1.27
2022-09-02T11:15:06.726Z,1.00
2022-09-02T11:18:06.613Z,1.10
2022-09-02T11:20:50.797Z,0.73
2022-09-02T11:23:31.867Z,1.00
2022-09-02T11:26:05.956Z,0.98
2022-09-02T11:28:48.762Z,0.75
2022-09-02T11:31:19.983Z,1.48
2022-09-02T11:36:39.006Z,1.27
2022-09-02T11:39:36.437Z,1.25
2022-09-02T11:42:20.582Z,0.98
2022-09-02T11:45:10.410Z,0.77
2022-09-02T11:48:05.016Z,1.05
2022-09-02T11:50:50.335Z,0.77
2022-09-02T11:53:28.956Z,1.48
2022-09-02T11:56:03.852Z,4.05
2022-09-02T11:58:41.986Z,1.08
2022-09-02T12:01:25.941Z,1.55
2022-09-02T12:04:55.414Z,0.80
2022-09-02T12:07:09.191Z,1.23
2022-09-02T12:09:50.462Z,1.45
2022-09-02T12:12:39.036Z,3.13
2022-09-02T12:15:05.935Z,1.13
2022-09-02T12:17:59.242Z,1.42
2022-09-02T12:20:41.658Z,1.52
2022-09-02T12:23:09.898Z,0.85
2022-09-02T12:25:49.611Z,1.88
2022-09-02T12:28:25.868Z,2.92
2022-09-02T12:31:10.370Z,0.98
2022-09-02T12:33:38.618Z,1.58
2022-09-02T12:36:07.592Z,1.35
2022-09-02T12:38:39.597Z,1.50
2022-09-02T12:41:07.978Z,1.35
2022-09-02T12:43:44.636Z,1.25
2022-09-02T12:46:26.022Z,1.38
2022-09-02T12:49:14.151Z,2.80
2022-09-02T12:51:57.308Z,1.38
2022-09-02T12:54:32.011Z,1.17
2022-09-02T12:56:58.844Z,2.08
2022-09-02T12:59:32.263Z,1.77
2022-09-02T13:02:17.278Z,1.95
2022-09-02T13:05:28.040Z,1.30
2022-09-02T13:08:22.366Z,2.75
2022-09-02T13:11:16.209Z,2.25
2022-09-02T13:14:01.147Z,1.00
2022-09-02T13:17:35.681Z,1.13
2022-09-02T13:20:33.489Z,0.93
2022-09-02T13:23:09.201Z,1.25
2022-09-02T13:25:54.607Z,1.33
2022-09-02T13:28:33.946Z,1.20
2022-09-02T13:31:19.972Z,1.00
2022-09-02T13:33:46.529Z,6.13
2022-09-02T13:36:26.427Z,0.70
2022-09-02T13:38:52.988Z,1.95
2022-09-02T13:41:29.090Z,2.38
2022-09-02T13:44:06.960Z,2.40
2022-09-02T13:46:33.669Z,1.42
2022-09-02T13:49:00.355Z,1.00
2022-09-02T13:51:26.893Z,2.53
2022-09-02T13:54:21.482Z,1.83
2022-09-02T13:56:40.264Z,3.25
2022-09-02T13:59:06.827Z,5.18
2022-09-02T14:01:37.084Z,1.02
2022-09-02T14:04:09.840Z,2.00
2022-09-02T14:06:44.280Z,1.58
2022-09-02T14:09:20.354Z,4.10
2022-09-02T14:11:48.559Z,2.53
2022-09-02T14:14:18.737Z,4.40
2022-09-02T14:16:45.581Z,1.23
2022-09-02T14:19:15.026Z,2.75
2022-09-02T14:21:53.710Z,2.75
2022-09-02T14:24:28.698Z,1.17
2022-09-02T14:26:57.253Z,2.17
2022-09-02T14:29:25.138Z,2.05
2022-09-02T14:32:15.377Z,1.98
2022-09-02T14:34:44.508Z,3.33
2022-09-02T14:37:26.766Z,1.88
2022-09-02T14:40:12.005Z,2.28
2022-09-02T14:42:56.645Z,1.27
2022-09-02T14:45:30.932Z,2.80
2022-09-02T14:48:01.652Z,1.75
2022-09-02T14:50:32.607Z,1.30
2022-09-02T14:53:03.896Z,1.00
2022-09-02T14:55:39.752Z,2.30
2022-09-02T14:58:06.276Z,1.23
2022-09-02T15:00:34.726Z,2.20
2022-09-02T15:03:01.797Z,2.33
2022-09-02T15:05:29.080Z,0.98
2022-09-02T15:07:56.799Z,1.80
2022-09-02T15:10:23.834Z,1.80
2022-09-02T15:12:53.741Z,1.42
2022-09-02T15:15:20.738Z,0.73
2022-09-02T15:17:47.302Z,1.60
2022-09-02T15:20:13.923Z,1.60
2022-09-02T15:22:40.451Z,1.45
2022-09-02T15:25:08.901Z,1.25
2022-09-02T15:27:37.032Z,1.88
2022-09-02T15:30:05.507Z,0.98
2022-09-02T15:32:32.069Z,9.75
2022-09-02T15:34:58.610Z,2.67
2022-09-02T15:37:25.344Z,1.90
2022-09-02T15:39:51.910Z,4.00
2022-09-02T15:42:18.529Z,1.70
2022-09-02T15:44:46.261Z,1.63
2022-09-02T15:47:12.774Z,2.20
2022-09-02T15:49:39.302Z,3.08
2022-09-02T15:52:06.146Z,4.65
2022-09-02T15:54:33.274Z,2.30
2022-09-02T15:56:59.904Z,2.75
2022-09-02T15:59:27.465Z,4.25
2022-09-02T16:01:56.881Z,3.60
2022-09-02T16:04:23.918Z,3.85
2022-09-02T16:06:54.933Z,3.58
2022-09-02T16:09:21.956Z,2.72
2022-09-02T16:11:51.851Z,7.88
2022-09-02T16:14:20.656Z,2.13
2022-09-02T16:16:49.290Z,4.85
2022-09-02T16:19:18.762Z,4.82
2022-09-02T16:21:45.501Z,3.50
2022-09-02T16:24:12.146Z,7.15
2022-09-02T16:26:40.691Z,11.50
2022-09-02T16:29:09.931Z,11.02
2022-09-02T16:31:38.853Z,12.38
2022-09-02T16:34:11.197Z,14.55
2022-09-02T16:36:40.737Z,15.68
2022-09-02T16:39:08.363Z,13.07
2022-09-02T16:41:38.011Z,11.85
2022-09-02T16:44:16.702Z,13.80
2022-09-02T16:46:44.788Z,5.90
2022-09-02T16:49:13.690Z,6.85
2022-09-02T16:51:40.975Z,6.35
2022-09-02T16:56:36.760Z,3.95
2022-09-02T16:59:05.857Z,4.07
2022-09-02T17:01:34.498Z,6.43
2022-09-02T17:04:01.939Z,4.40
2022-09-02T17:06:31.016Z,3.30
2022-09-02T17:08:57.755Z,3.92
2022-09-02T17:11:36.415Z,3.75
2022-09-02T17:14:05.949Z,3.15
2022-09-02T17:16:38.953Z,5.43
2022-09-02T17:19:05.922Z,5.30
2022-09-02T17:21:38.300Z,6.07
2022-09-02T17:24:06.361Z,2.67
2022-09-02T17:26:35.589Z,3.58
2022-09-02T17:29:31.697Z,4.15
2022-09-02T17:31:58.697Z,3.50
2022-09-02T17:34:26.065Z,3.85
2022-09-02T17:36:53.430Z,4.57
2022-09-02T17:39:20.514Z,4.95
2022-09-02T17:41:59.333Z,4.95
2022-09-02T17:44:38.640Z,5.78
2022-09-02T17:49:36.662Z,3.58
2022-09-02T17:52:08.011Z,4.03
2022-09-02T17:54:36.067Z,4.78
2022-09-02T17:57:29.839Z,6.40
2022-09-02T18:00:16.122Z,3.65
2022-09-02T18:03:04.320Z,6.70
2022-09-02T18:05:50.531Z,2.90
2022-09-02T18:09:05.306Z,4.00
2022-09-02T18:11:36.622Z,6.63
2022-09-02T18:14:13.939Z,6.25
2022-09-02T18:16:59.300Z,6.45
2022-09-02T18:19:49.815Z,8.55
2022-09-02T18:22:37.340Z,4.35
2022-09-02T18:25:18.879Z,5.72
2022-09-02T18:27:55.710Z,4.05
2022-09-02T18:30:38.539Z,5.30
2022-09-02T18:33:26.934Z,6.30
2022-09-02T18:36:22.423Z,6.03
2022-09-02T18:39:30.624Z,7.88
2022-09-02T18:42:03.356Z,3.97
2022-09-02T18:44:42.025Z,5.18
2022-09-02T18:47:23.583Z,2.60
2022-09-02T18:49:54.510Z,4.60
2022-09-02T18:52:26.442Z,4.65
2022-09-02T18:55:09.985Z,3.13
2022-09-02T18:57:50.503Z,2.90
2022-09-02T19:00:22.193Z,4.78
2022-09-02T19:02:49.207Z,3.38
2022-09-02T19:05:20.702Z,2.67
2022-09-02T19:08:18.799Z,5.70
2022-09-02T19:10:45.456Z,2.20
2022-09-02T19:13:13.251Z,3.60
2022-09-02T19:15:40.170Z,2.53
2022-09-02T19:18:07.876Z,4.15
2022-09-02T19:20:35.883Z,2.92
2022-09-02T19:23:04.419Z,3.63
2022-09-02T19:25:31.990Z,2.80
2022-09-02T19:28:06.028Z,2.47
2022-09-02T19:30:37.391Z,3.30
2022-09-02T19:33:09.457Z,2.25
2022-09-02T19:35:36.658Z,2.47
2022-09-02T19:38:03.843Z,4.47
2022-09-02T19:40:33.643Z,2.58
2022-09-02T19:43:03.673Z,2.08
2022-09-02T19:45:39.069Z,2.65
2022-09-02T19:48:09.821Z,2.67
2022-09-02T19:50:47.487Z,3.72
2022-09-02T19:53:27.859Z,3.42
2022-09-02T19:55:54.433Z,3.08
2022-09-02T19:58:21.098Z,4.40
2022-09-02T20:00:48.381Z,1.48
2022-09-02T20:03:16.291Z,2.92
2022-09-02T20:05:42.824Z,2.78
2022-09-02T20:08:09.833Z,2.78
2022-09-02T20:10:37.543Z,3.45
2022-09-02T20:13:05.413Z,3.60
2022-09-02T20:15:37.404Z,3.15
2022-09-02T20:18:13.488Z,2.83
2022-09-02T20:20:45.621Z,2.88
2022-09-02T20:23:17.390Z,2.97
2022-09-02T20:25:52.339Z,3.08
2022-09-02T20:28:32.999Z,4.25
2022-09-02T20:31:44.794Z,2.03
2022-09-02T20:34:42.158Z,2.08
2022-09-02T20:37:50.830Z,3.25
2022-09-02T20:40:45.898Z,2.30
2022-09-02T20:43:24.333Z,2.70
2022-09-02T20:46:33.716Z,1.90
2022-09-02T20:49:12.164Z,2.40
2022-09-02T20:52:07.986Z,2.75
2022-09-02T20:56:41.052Z,2.90
2022-09-02T21:00:03.948Z,3.90
2022-09-02T21:02:39.263Z,2.42
2022-09-02T21:05:32.999Z,2.05
2022-09-02T21:08:10.619Z,2.38
2022-09-02T21:10:43.065Z,1.77
2022-09-02T21:13:35.379Z,3.75
2022-09-02T21:16:08.997Z,2.05
2022-09-02T21:18:47.048Z,3.22
2022-09-02T21:21:16.154Z,1.90
2022-09-02T21:23:50.905Z,3.90
2022-09-02T21:26:38.881Z,3.72
2022-09-02T21:29:41.382Z,3.53
2022-09-02T21:32:19.662Z,3.45
2022-09-02T21:34:54.307Z,3.00
2022-09-02T21:37:23.113Z,2.83
2022-09-02T21:39:58.414Z,2.83
2022-09-02T21:43:09.932Z,2.90
2022-09-02T21:46:08.703Z,2.15
2022-09-02T21:48:57.359Z,3.58
2022-09-02T21:51:33.904Z,2.80
2022-09-02T21:54:15.579Z,3.05
2022-09-02T21:57:00.810Z,1.80
2022-09-02T21:59:55.547Z,1.45
2022-09-02T22:02:30.948Z,2.03
2022-09-02T22:05:08.701Z,2.10
2022-09-02T22:07:44.374Z,2.97
2022-09-02T22:10:32.250Z,1.50
2022-09-02T22:13:01.239Z,1.92
2022-09-02T22:15:59.571Z,1.77
2022-09-02T22:18:52.229Z,3.28
2022-09-02T22:21:48.949Z,2.42
2022-09-02T22:24:17.608Z,1.90
2022-09-02T22:27:06.369Z,1.65
2022-09-02T22:30:17.161Z,2.10
2022-09-02T22:32:57.648Z,2.00
2022-09-02T22:35:41.424Z,1.60
2022-09-02T22:38:27.638Z,1.55
2022-09-02T22:41:20.174Z,2.45
2022-09-02T22:43:53.455Z,2.22
2022-09-02T22:47:07.979Z,2.00
2022-09-02T22:50:00.335Z,1.77
2022-09-02T22:52:49.320Z,2.45
2022-09-02T22:55:42.586Z,1.48
2022-09-02T22:58:38.862Z,1.75
2022-09-02T23:01:34.527Z,1.95
2022-09-02T23:04:21.393Z,1.77
2022-09-02T23:06:48.053Z,1.70
2022-09-02T23:09:15.823Z,1.20
2022-09-02T23:11:51.430Z,2.92
2022-09-02T23:14:41.874Z,1.55
2022-09-02T23:17:27.428Z,3.20
2022-09-02T23:22:46.798Z,1.35
2022-09-02T23:25:30.225Z,1.42
2022-09-02T23:28:16.876Z,2.10
2022-09-02T23:31:01.823Z,1.65
2022-09-02T23:33:50.948Z,1.58
2022-09-02T23:36:23.547Z,1.42
2022-09-02T23:39:13.070Z,1.70
2022-09-02T23:41:45.320Z,1.88
2022-09-02T23:44:12.756Z,1.45
2022-09-02T23:46:41.969Z,1.92
2022-09-02T23:49:11.384Z,1.67
2022-09-02T23:51:57.031Z,1.73
2022-09-02T23:54:45.996Z,1.77
2022-09-02T23:57:32.711Z,1.00
